Logo AVAMET
Benvolgut visitant, si us plau, ingressa Recuperar contrasenya

Barx la Visteta

Dades diàries. Acumulats / Últims 30 dies disponibles

Data Temperatura (°C) Humitat rel. (%) Pressió rel. (hPa) Vent (km/h) Precipitació
Mínima Mitjana Màxima Amplitud
tèrmica
Mínima Mitjana Màxima Mínima Mitjana Màxima Predom. Mitjana Ràfega
màxima
Total
(mm)
Índex-n
Mínima Mitjana Màxima Mínima Mitjana Màxima n
0 a 1
P0 max
mm 5'
Dades mensuals acumulades fins l'últim dia disponible
01/2020 2,1 5,1 9,8 9,0 9,9 13,5 16,8 14,7 37 78 98 1.013 1.026 1.034   7,3 85,1 355,0
Dades anuals acumulades fins l'últim dia disponible
2020 2,1 5,1 9,8 9,0 9,9 13,5 16,8 14,7 37 78 98 1.013 1.026 1.034   7,3 85,1 355,0
Últims 30 dies disponibles
27-01-2020 6,9     10,5     14,6 7,7 54 68 82 1.021 1.023 1.025 SSO 11,1 37,0 0,0
26-01-2020 8,6     11,1     15,1 6,5 54 75 96 1.019 1.021 1.025 SSO 7,2 33,3 0,0
25-01-2020 8,4     9,6     11,6 3,2 90 93 96 1.018 1.020 1.022 S 2,5 12,9 0,9
24-01-2020 6,3     8,9     9,9 3,6 90 94 97 1.021 1.022 1.023 SSE 1,5 9,3 0,2
23-01-2020 4,4     8,1     12,7 8,3 83 90 96 1.019 1.021 1.023 S 4,0 20,4 0,4
22-01-2020 5,2     8,5     11,4 6,2 87 92 96 1.017 1.019 1.020 SSE 4,6 29,6 25,8 0,32 4,30
21-01-2020 5,7     9,1     11,9 6,2 87 93 98 1.013 1.015 1.020 ENE 7,8 57,4 119,2 0,72 28,10
20-01-2020 3,5     6,0     10,1 6,6 95 96 97 1.016 1.018 1.020 NNE 23,8 79,5 136,2 0,39 4,90
19-01-2020 4,9     7,7     13,3 8,4 71 83 95 1.014 1.017 1.019 NNE 17,4 85,1 62,1
18-01-2020 7,8     12,2     15,9 8,1 54 66 77 1.020 1.027 1.032 SSO 10,0 40,7 0,0
17-01-2020 9,8     13,0     15,8 6,0 46 57 67 1.027 1.029 1.032 SSO 8,2 42,5 0,0
16-01-2020 9,1     12,3     16,2 7,1 61 71 80 1.026 1.027 1.029 S 7,2 20,4 0,0
15-01-2020 7,1     11,2     16,8 9,7 47 60 73 1.023 1.025 1.028 S 10,5 31,4 0,0
14-01-2020 4,8     9,5     15,7 10,9 37 59 80 1.021 1.022 1.024 S 8,7 29,6 0,0
13-01-2020 2,1     9,6     16,7 14,6 37 61 85 1.022 1.026 1.030 S 8,7 27,8 0,0
12-01-2020 2,5     7,0     13,6 11,1 42 65 87 1.029 1.030 1.031 S 6,6 18,5 0,0
11-01-2020 3,3     7,5     13,4 10,1 68 79 90 1.028 1.030 1.033 S 4,8 16,6 0,0
10-01-2020 7,8     9,5     12,3 4,5 63 78 92 1.023 1.025 1.029 ESE 7,4 62,9 8,3 0,48 0,90
09-01-2020 4,2     8,9     12,9 8,7 71 83 94 1.024 1.028 1.031 S 5,5 22,2 0,4
08-01-2020 3,1     7,9     12,1 9,0 66 80 94 1.028 1.030 1.032 S 5,1 22,2 0,0
07-01-2020 3,1     7,1     14,7 11,6 67 81 95 1.029 1.031 1.033 SSO 4,5 12,9 0,2
06-01-2020 4,7     8,7     12,6 7,9 77 85 93 1.028 1.029 1.031 SSE 4,1 12,9 0,0
05-01-2020 4,6     8,8     16,0 11,4 60 75 89 1.027 1.029 1.032 S 6,2 20,4 0,0
04-01-2020 3,3     7,7     14,2 10,9 58 77 96 1.032 1.033 1.034 S 5,5 16,6 0,2
03-01-2020 2,1     7,4     12,1 10,0 67 82 96 1.030 1.031 1.034 S 4,8 18,5 0,4
02-01-2020 2,3     6,4     11,6 9,3 83 90 96 1.030 1.032 1.033 S 4,4 12,9 0,5
01-01-2020 3,4     7,8     11,7 8,3 80 88 95 1.031 1.032 1.034 S 5,2 18,5 0,2
30-12-2019 5,2     8,8     11,9 6,7 76 85 94 1.032 1.033 1.035 S 3,1 14,8 0,0
29-12-2019 4,9     8,0     12,1 7,2 78 87 95 1.030 1.032 1.034 S 4,1 14,8 0,2
28-12-2019 4,7     8,1     12,1 7,4 83 90 96 1.029 1.030 1.033 S 4,3 16,6 0,2
Últims 13 mesos disponibles
01/2020 2,1 4,7 9,8 8,8 10,1 13,7 16,8 14,7 57 77 96 1.015 1.027 1.033 S 7,8 85,1 353,5
12/2019 4,7 9,2 17,2 12,5 10,6 16,2 23,4 18,7 50 72 94 1.002 1.018 1.033 S 9,8 85,1 388,0
11/2019 4,4 10,3 19,2 13,6 12,8 17,4 24,7 20,3 48 61 78 999 1.011 1.019 SO 10,2 74,0 14,4
10/2019 9,9 14,1 18,3 18,5 14,2 23,3 32,0 22,1 43 70 91 1.008 1.016 1.022 S 5,3 42,5 53,9
09/2019 12,2 17,9 22,2 22,0 20,1 26,1 33,1 20,9 48 76 98 1.009 1.017 1.024 SSE 6,7 75,8 167,3
08/2019 16,6 19,8 24,1 25,0 25,9 30,8 39,7 23,1 45 70 84 1.010 1.015 1.020 SSE 5,6 44,4 31,8
07/2019 17,0 19,8 24,6 25,4 25,8 31,0 36,8 19,8 51 65 84 1.006 1.014 1.021 NE 6,0 42,5 0,2
06/2019 11,6 13,8 16,5 19,3 20,5 25,2 28,5 16,9 25 38 42 1.010 1.016 1.022 S 7,0 44,4 1,2
05/2019 7,8 12,4 19,9 17,3 15,8 22,2 29,8 22,0 16 38 55 1.006 1.016 1.024 S 6,9 44,4 11,1
04/2019 6,9 10,2 13,6 13,7 12,1 17,8 26,4 19,5 13 40 85 1.001 1.013 1.025 SSO 9,2 61,0 342,2
03/2019 3,0 7,7 15,4 12,8 12,1 18,0 25,3 22,3 16 43 86 1.010 1.022 1.029 S 7,9 53,6 77,0
Tots els anys disponibles
2019 3,0 13,8 24,6 18,1 10,6 23,1 39,7 36,7 13 58 98 999 1.016 1.029 S 7,2 75,8 1.086,7
Temperatura (°C)
Humitat relativa (%)
Velocitat del vent i ràfega màxima (km/h)
Direcció del vent (°)
Pressió (hPa)
Precipitació (mm)
Nota sobre les dades: s'avisa a l'usuari de la provisionalitat i no oficialitat d'aquestes dades
Logo AVAMET blanc
Web allotjada a Sollutia
Llicència de Creative CommonsLa web d'AVAMET i els seus continguts estan subjectes a una llicència de
Reconeixement - No Comercial - Compartir igual
Últimes estacions: Xixona - Els Ameradors (Soci), Agres - El Tossal (Soci), Xàbia - Bevenguts (MeteoXàbia), Llíria (Aj. Soci/Inforatge), Orihuela - Lo Capitán, Cox & Guardamar del Segura - horta (Meteorihuela), l'Alcúdia - Carriona & el Real de Gandia (Inforatge), Benicàssim - les Vil·les (Soci),  l'Alfàs del Pi - l'Albir (Soci), - - -